Time;durP1;ratioP1;P1;durP2;ratioP2;P2;SDS_P1;SDS_P2;PMS_P1;PMS_P2;Temp;Humidity;BMP_temperature;BMP_pressure;BME280_temperature;BME280_humidity;BME280_pressure;Samples;Min_cycle;Max_cycle;Signal;HPM_P1;HPM_P2
2022/07/28 00:02:36;;;;;;;7.67;4.10;;;;;;;11.43;71.31;100556.81;2127341;83;34084;-63
2022/07/28 00:05:39;;;;;;;7.60;4.12;;;;;;;11.39;71.26;100554.31;2127523;83;30051;-63
2022/07/28 00:08:41;;;;;;;9.20;4.50;;;;;;;11.37;71.34;100559.33;2127639;83;27673;-63
2022/07/28 00:11:42;;;;;;;9.53;4.10;;;;;;;11.34;71.30;100556.34;2127420;83;28571;-63
2022/07/28 00:14:44;;;;;;;7.78;4.42;;;;;;;11.32;71.37;100555.54;2127541;83;31058;-63
2022/07/28 00:17:46;;;;;;;8.28;4.05;;;;;;;11.30;71.40;100555.22;2127289;83;33534;-63
2022/07/28 00:20:47;;;;;;;10.75;4.35;;;;;;;11.28;71.43;100563.33;2127242;83;30417;-63
2022/07/28 00:23:49;;;;;;;10.70;3.80;;;;;;;11.25;71.43;100562.16;2127556;83;27716;-63
2022/07/28 00:26:50;;;;;;;7.62;4.37;;;;;;;11.22;71.45;100556.45;2127882;83;28662;-63
2022/07/28 00:29:52;;;;;;;7.67;3.85;;;;;;;11.17;71.35;100549.09;2127230;83;31499;-62
2022/07/28 00:32:53;;;;;;;7.62;4.53;;;;;;;11.13;71.32;100556.02;2127528;83;33177;-63
2022/07/28 00:35:55;;;;;;;10.93;3.95;;;;;;;11.08;71.36;100557.13;2127188;83;29628;-63
2022/07/28 00:38:57;;;;;;;7.10;4.37;;;;;;;11.05;71.40;100562.64;2127921;83;27649;-63
2022/07/28 00:41:58;;;;;;;5.28;3.83;;;;;;;11.03;71.43;100555.59;2127367;83;29226;-63
2022/07/28 00:45:00;;;;;;;6.55;4.00;;;;;;;11.00;71.47;100555.27;2127417;83;31013;-64
2022/07/28 00:48:02;;;;;;;7.40;3.95;;;;;;;10.97;71.47;100558.58;2127223;83;34443;-63
2022/07/28 00:51:05;;;;;;;8.38;4.03;;;;;;;10.94;71.63;100560.46;2127736;83;30602;-63
2022/07/28 00:54:06;;;;;;;7.78;4.33;;;;;;;10.92;71.61;100561.48;2127516;83;27571;-63
2022/07/28 00:57:08;;;;;;;6.10;3.45;;;;;;;10.88;71.64;100567.44;2127121;83;29895;-63
2022/07/28 01:00:11;;;;;;;6.17;3.33;;;;;;;10.85;71.59;100567.57;2127049;83;32245;-63
2022/07/28 01:03:12;;;;;;;5.83;3.70;;;;;;;10.81;71.64;100555.28;2127376;83;32778;-63
2022/07/28 01:06:43;;;;;;;6.47;3.58;;;;;;;10.78;71.58;100558.09;2127625;83;29715;-63
2022/07/28 01:10:00;;;;;;;7.85;4.00;;;;;;;10.75;71.78;100559.12;2127138;83;27647;-61
2022/07/28 01:13:12;;;;;;;4.35;3.67;;;;;;;10.73;71.81;100562.79;2127169;83;28636;-61
2022/07/28 01:16:13;;;;;;;8.05;4.35;;;;;;;10.70;71.86;100562.47;2127182;83;31439;-61
2022/07/28 01:19:23;;;;;;;8.23;3.60;;;;;;;10.67;71.88;100560.41;2127348;83;33406;-61
2022/07/28 01:22:28;;;;;;;10.85;4.10;;;;;;;10.64;71.86;100565.42;2125627;83;29404;-61
2022/07/28 01:25:51;;;;;;;;;;;;;;;10.59;71.78;100566.13;2130219;83;27691;-62
2022/07/28 01:29:23;;;;;;;7.92;4.17;;;;;;;10.56;71.99;100573.81;2127573;83;28672;-62
2022/07/28 01:32:38;;;;;;;7.53;4.05;;;;;;;10.51;72.09;100574.47;2127753;83;31408;-62
2022/07/28 01:35:56;;;;;;;7.58;3.72;;;;;;;10.47;72.17;100572.90;2129478;83;33006;-62
2022/07/28 01:38:59;;;;;;;7.58;3.62;;;;;;;10.44;72.19;100567.19;2132710;83;29653;-62
2022/07/28 01:42:02;;;;;;;7.50;3.90;;;;;;;10.42;72.11;100574.91;2130878;83;27728;-62
2022/07/28 01:45:07;;;;;;;10.82;4.33;;;;;;;10.39;72.18;100577.71;2131219;83;28632;-62
2022/07/28 01:48:10;;;;;;;6.72;4.50;;;;;;;10.36;72.25;100584.50;2131221;83;31867;-62
2022/07/28 01:51:13;;;;;;;10.88;4.90;;;;;;;10.32;72.38;100583.33;2132374;83;32963;-62
2022/07/28 01:54:16;;;;;;;8.88;4.78;;;;;;;10.31;72.55;100590.06;2130846;83;29714;-61
2022/07/28 01:57:19;;;;;;;7.72;4.28;;;;;;;10.29;72.49;100587.47;2131249;83;27626;-60
2022/07/28 02:00:23;;;;;;;6.42;4.87;;;;;;;10.26;72.42;100589.42;2131058;83;28661;-61
2022/07/28 02:03:27;;;;;;;7.60;4.47;;;;;;;10.25;72.48;100591.70;2130944;83;31048;-60
2022/07/28 02:06:30;;;;;;;11.83;4.10;;;;;;;10.22;72.65;100590.00;2132295;83;32755;-60
2022/07/28 02:09:32;;;;;;;10.48;5.22;;;;;;;10.20;72.76;100587.86;2131044;83;29626;-61
2022/07/28 02:12:35;;;;;;;8.63;4.58;;;;;;;10.17;72.77;100585.34;2131125;83;27585;-61
2022/07/28 02:15:37;;;;;;;8.88;4.30;;;;;;;10.15;72.89;100584.53;2108703;83;28702;-62
2022/07/28 02:18:40;;;;;;;10.10;4.22;;;;;;;10.13;73.02;100583.72;2130734;83;32197;-59
2022/07/28 02:21:43;;;;;;;6.45;4.75;;;;;;;10.11;73.02;100581.09;2130787;83;33367;-60
2022/07/28 02:24:46;;;;;;;7.35;4.47;;;;;;;10.09;73.03;100584.33;2130746;83;30104;-61
2022/07/28 02:27:59;;;;;;;9.40;5.65;;;;;;;10.07;73.12;100585.31;2108540;83;27724;-62
2022/07/28 02:31:04;;;;;;;7.80;5.00;;;;;;;10.03;73.16;100589.45;2130949;83;29083;-62
2022/07/28 02:34:07;;;;;;;9.23;3.83;;;;;;;10.01;73.15;100589.13;2131975;83;31055;-62
2022/07/28 02:37:09;;;;;;;7.78;4.53;;;;;;;9.97;73.07;100592.86;2137713;83;33621;-62
2022/07/28 02:40:14;;;;;;;11.90;4.92;;;;;;;9.94;73.12;100591.65;2137848;83;29782;-62
2022/07/28 02:43:19;;;;;;;5.10;2.85;;;;;;;9.91;73.17;100594.48;2138214;83;27614;-62
2022/07/28 02:46:25;;;;;;;;;;;;;;;9.88;73.27;100592.78;2140533;83;29735;-61
2022/07/28 02:49:30;;;;;;;9.70;4.78;;;;;;;9.85;73.33;100599.14;2136779;83;31203;-62
2022/07/28 02:52:32;;;;;;;8.30;4.95;;;;;;;9.81;73.21;100612.23;2137552;83;33953;-59
2022/07/28 02:55:35;;;;;;;12.00;5.85;;;;;;;9.78;73.32;100610.17;2137921;83;30017;-60
2022/07/28 02:58:36;;;;;;;6.33;4.80;;;;;;;9.75;73.31;100607.61;2138153;83;27646;-59
2022/07/28 03:01:38;;;;;;;11.15;5.28;;;;;;;9.72;73.28;100617.98;2137937;83;28810;-60
2022/07/28 03:04:55;;;;;;;10.03;5.10;;;;;;;9.71;73.46;100613.56;2137436;83;32243;-60
2022/07/28 03:07:58;;;;;;;9.50;5.75;;;;;;;9.70;73.44;100626.53;2138031;83;33004;-60
2022/07/28 03:11:09;;;;;;;9.38;5.10;;;;;;;9.68;73.43;100625.23;2137793;83;30513;-60
2022/07/28 03:14:10;;;;;;;6.90;4.53;;;;;;;9.66;73.52;100631.59;2137445;82;27699;-61
2022/07/28 03:17:12;;;;;;;7.92;4.90;;;;;;;9.65;73.69;100628.52;2137793;83;29843;-60
2022/07/28 03:20:14;;;;;;;8.68;5.20;;;;;;;9.66;73.67;100643.64;2137778;83;31397;-60
2022/07/28 03:23:15;;;;;;;6.95;5.28;;;;;;;9.64;73.66;100639.70;2138069;83;33943;-60
2022/07/28 03:26:28;;;;;;;10.00;5.22;;;;;;;9.66;73.76;100641.84;2137503;83;30726;-60
2022/07/28 03:29:31;;;;;;;9.08;5.90;;;;;;;9.68;73.75;100641.30;2137187;83;27855;-61
2022/07/28 03:32:36;;;;;;;10.10;5.00;;;;;;;9.70;73.69;100649.27;2137612;83;29092;-61
2022/07/28 03:35:40;;;;;;;6.43;4.27;;;;;;;9.70;73.66;100650.61;2132209;83;31002;-61
2022/07/28 03:38:50;;;;;;;6.58;4.70;;;;;;;9.73;73.85;100651.83;2127518;83;33243;-61
2022/07/28 03:41:52;;;;;;;11.48;5.90;;;;;;;9.76;73.90;100654.84;2127535;83;29585;-61
2022/07/28 03:44:54;;;;;;;7.97;5.37;;;;;;;9.79;73.98;100653.38;2127666;83;27618;-61
2022/07/28 03:47:57;;;;;;;8.28;5.30;;;;;;;9.83;74.04;100657.69;2127496;83;29096;-61
2022/07/28 03:50:58;;;;;;;11.28;5.12;;;;;;;9.85;74.05;100663.37;2127133;83;31633;-61
2022/07/28 03:53:59;;;;;;;6.67;5.47;;;;;;;9.90;74.04;100663.66;2127604;83;33073;-61
2022/07/28 03:57:01;;;;;;;10.43;4.95;;;;;;;9.94;74.05;100659.89;2127649;83;29757;-61
2022/07/28 04:00:04;;;;;;;11.57;5.28;;;;;;;9.98;74.10;100661.06;2127843;83;27803;-61
2022/07/28 04:03:05;;;;;;;8.68;5.15;;;;;;;10.04;74.19;100670.64;2127537;83;28630;-61
2022/07/28 04:06:06;;;;;;;8.70;5.33;;;;;;;10.09;74.29;100663.30;2127471;83;30811;-61
2022/07/28 04:09:08;;;;;;;8.88;5.55;;;;;;;10.16;74.32;100667.93;2127301;83;34201;-60
2022/07/28 04:12:09;;;;;;;10.08;5.33;;;;;;;10.23;74.37;100672.07;2127800;83;30597;-61
2022/07/28 04:15:14;;;;;;;14.55;5.05;;;;;;;10.31;74.47;100675.31;2127676;83;27694;-61
2022/07/28 04:18:15;;;;;;;8.83;5.00;;;;;;;10.41;74.56;100677.16;2127854;83;29201;-61
2022/07/28 04:21:16;;;;;;;7.05;4.72;;;;;;;10.50;74.60;100686.61;2127498;83;31517;-61
2022/07/28 04:24:18;;;;;;;11.75;4.85;;;;;;;10.60;74.70;100680.36;2127440;83;33081;-60
2022/07/28 04:27:19;;;;;;;9.30;5.08;;;;;;;10.72;74.76;100678.50;2127530;83;29750;-60
2022/07/28 04:30:26;;;;;;;10.98;5.28;;;;;;;10.83;74.87;100669.09;2127494;83;27635;-61
2022/07/28 04:33:29;;;;;;;9.13;4.10;;;;;;;10.94;74.86;100674.84;2127380;83;29846;-61
2022/07/28 04:36:31;;;;;;;10.68;5.03;;;;;;;11.06;74.96;100673.41;2127194;82;31022;-60
2022/07/28 04:39:32;;;;;;;7.25;5.50;;;;;;;11.18;75.00;100673.33;2127480;83;33012;-62
2022/07/28 04:42:35;;;;;;;7.83;5.12;;;;;;;11.30;75.09;100669.22;2127053;83;29381;-61
2022/07/28 04:45:37;;;;;;;9.35;5.55;;;;;;;11.44;75.16;100664.06;2127761;83;27709;-61
2022/07/28 04:48:38;;;;;;;9.23;5.45;;;;;;;11.62;75.18;100662.79;2126767;83;29022;-63
2022/07/28 04:51:39;;;;;;;8.25;4.92;;;;;;;12.03;75.91;100664.42;2127036;83;31012;-61
2022/07/28 04:54:41;;;;;;;8.35;4.40;;;;;;;13.17;76.89;100661.63;2127636;83;33978;-61
2022/07/28 04:57:43;;;;;;;7.20;4.53;;;;;;;14.63;76.36;100667.66;2127399;83;29642;-61
2022/07/28 05:00:44;;;;;;;8.63;3.83;;;;;;;16.13;74.94;100660.53;2127528;83;27594;-61
2022/07/28 05:03:46;;;;;;;7.05;3.60;;;;;;;17.46;72.76;100655.33;2127499;83;29275;-60
2022/07/28 05:06:47;;;;;;;6.28;3.58;;;;;;;18.66;70.19;100652.72;2126942;83;33130;-61
2022/07/28 05:09:48;;;;;;;9.80;4.45;;;;;;;19.70;69.03;100641.73;2127264;83;32911;-61
2022/07/28 05:12:51;;;;;;;6.78;3.62;;;;;;;20.67;67.35;100634.55;2127776;83;29389;-60
2022/07/28 05:15:54;;;;;;;7.97;3.58;;;;;;;21.48;65.31;100641.99;2127599;83;27732;-61
2022/07/28 05:18:56;;;;;;;8.18;3.77;;;;;;;22.07;63.80;100641.63;2127697;83;28704;-61
2022/07/28 05:21:58;;;;;;;7.92;3.77;;;;;;;22.59;62.60;100640.45;2127322;83;31479;-60
2022/07/28 05:24:59;;;;;;;9.58;3.50;;;;;;;22.99;60.72;100643.97;2127742;83;33016;-61
2022/07/28 05:28:01;;;;;;;3.65;2.65;;;;;;;23.38;59.62;100649.28;2127466;83;29708;-61
2022/07/28 05:31:03;;;;;;;7.42;5.05;;;;;;;23.50;58.16;100646.70;2127794;83;27608;-61
2022/07/28 05:34:04;;;;;;;9.23;5.62;;;;;;;23.73;57.19;100653.64;2127565;83;28645;-61
2022/07/28 05:37:06;;;;;;;7.47;3.35;;;;;;;23.91;56.30;100656.39;2135557;82;32236;-61
2022/07/28 05:40:12;;;;;;;11.35;3.90;;;;;;;24.01;55.32;100649.52;2137741;83;33459;-61
2022/07/28 05:43:14;;;;;;;7.47;3.08;;;;;;;24.02;54.26;100653.45;2137750;83;29612;-61
2022/07/28 05:46:15;;;;;;;7.40;2.95;;;;;;;23.93;53.78;100658.47;2137760;83;27598;-61
2022/07/28 05:49:16;;;;;;;7.47;3.02;;;;;;;23.81;53.05;100657.82;2137863;83;29056;-61
2022/07/28 05:52:17;;;;;;;7.72;3.27;;;;;;;23.75;52.48;100655.20;2137566;83;31687;-61
2022/07/28 05:55:19;;;;;;;8.93;2.80;;;;;;;23.66;51.69;100660.24;2137738;83;32692;-61
2022/07/28 05:58:21;;;;;;;8.33;2.77;;;;;;;23.66;51.46;100660.24;2137912;83;29942;-61
2022/07/28 06:01:22;;;;;;;9.08;3.10;;;;;;;23.72;50.75;100662.34;2138010;83;27699;-61
2022/07/28 06:04:24;;;;;;;7.75;3.15;;;;;;;23.81;50.11;100661.44;2137872;83;29841;-61
2022/07/28 06:07:25;;;;;;;7.08;2.62;;;;;;;24.09;49.58;100665.52;2137569;83;31091;-61
2022/07/28 06:10:57;;;;;;;5.60;2.30;;;;;;;24.49;49.44;100666.04;2137500;83;33590;-61
2022/07/28 06:13:37;;;;;;;6.40;2.75;;;;;;;25.00;48.92;100664.03;2134604;83;29986;-61
2022/07/28 06:16:39;;;;;;;5.33;2.67;;;;;;;25.53;47.96;100670.32;2137845;83;27688;-61
2022/07/28 06:19:42;;;;;;;6.25;2.77;;;;;;;26.04;47.32;100673.56;2137625;83;29037;-61
2022/07/28 06:22:45;;;;;;;9.18;3.17;;;;;;;26.59;46.26;100665.20;2137674;83;30989;-61
2022/07/28 06:25:48;;;;;;;7.65;2.87;;;;;;;27.07;45.47;100667.22;2137915;83;32951;-61
2022/07/28 06:28:50;;;;;;;7.25;2.83;;;;;;;27.54;44.85;100660.92;2137847;83;29794;-61
2022/07/28 06:31:51;;;;;;;8.23;2.67;;;;;;;28.08;44.29;100668.85;2138242;83;27654;-61
2022/07/28 06:34:52;;;;;;;6.00;2.67;;;;;;;28.58;43.28;100672.13;2137488;83;29315;-61
2022/07/28 06:37:55;;;;;;;10.75;3.35;;;;;;;29.11;42.18;100665.23;2127514;82;31049;-61
2022/07/28 06:40:57;;;;;;;7.95;3.27;;;;;;;29.69;41.73;100666.46;2127551;83;33474;-61
2022/07/28 06:43:58;;;;;;;8.83;3.87;;;;;;;30.27;40.63;100663.73;2127635;83;30718;-61
2022/07/28 06:46:59;;;;;;;5.53;3.12;;;;;;;30.80;39.14;100662.52;2127676;83;27689;-61
2022/07/28 06:50:02;;;;;;;5.03;3.20;;;;;;;31.05;38.41;100671.20;2127596;83;29860;-61
2022/07/28 06:53:03;;;;;;;5.92;2.45;;;;;;;31.45;37.87;100667.84;2127534;83;30911;-61
2022/07/28 06:56:05;;;;;;;7.97;2.02;;;;;;;31.80;37.35;100665.55;2127646;83;33291;-61
2022/07/28 06:59:06;;;;;;;4.22;2.17;;;;;;;32.18;36.21;100661.40;2127641;83;29672;-61
2022/07/28 07:02:07;;;;;;;3.85;1.87;;;;;;;32.48;35.21;100661.03;2127710;83;27688;-61
2022/07/28 07:05:10;;;;;;;4.67;1.92;;;;;;;32.73;34.60;100661.23;2127663;83;28621;-61
2022/07/28 07:08:11;;;;;;;3.83;1.90;;;;;;;32.93;33.51;100658.46;2127800;83;31387;-61
2022/07/28 07:11:12;;;;;;;3.22;1.57;;;;;;;33.11;33.08;100661.94;2127627;83;33399;-62
2022/07/28 07:14:14;;;;;;;6.70;2.25;;;;;;;33.25;32.58;100665.54;2127710;83;30012;-61
2022/07/28 07:17:15;;;;;;;8.23;2.00;;;;;;;33.36;31.71;100666.83;2127752;83;27592;-61
2022/07/28 07:20:16;;;;;;;5.22;1.70;;;;;;;33.41;31.21;100664.25;2127533;83;29030;-61
2022/07/28 07:23:17;;;;;;;4.15;1.85;;;;;;;33.23;30.49;100666.29;2127522;83;31630;-61
2022/07/28 07:26:18;;;;;;;2.92;2.05;;;;;;;33.30;30.21;100666.27;2127480;83;33340;-61
2022/07/28 07:29:21;;;;;;;2.98;1.77;;;;;;;33.39;29.98;100669.69;2127868;83;30320;-61
2022/07/28 07:32:23;;;;;;;4.65;1.75;;;;;;;33.46;29.52;100667.20;2127785;83;28036;-61
2022/07/28 07:35:24;;;;;;;6.80;2.08;;;;;;;33.52;29.37;100664.63;2127710;82;28727;-61
2022/07/28 07:38:26;;;;;;;7.83;2.02;;;;;;;33.57;29.05;100664.83;2137460;83;31697;-61
2022/07/28 07:41:27;;;;;;;3.80;1.77;;;;;;;33.57;28.13;100668.45;2137699;83;33377;-61
2022/07/28 07:44:28;;;;;;;5.60;2.27;;;;;;;33.57;27.99;100662.05;2138093;83;30131;-61
2022/07/28 07:47:30;;;;;;;4.97;1.90;;;;;;;33.39;27.02;100665.52;2137810;83;27611;-61
2022/07/28 07:50:31;;;;;;;6.15;2.08;;;;;;;32.96;26.86;100665.48;2137736;83;28825;-61
2022/07/28 07:53:32;;;;;;;4.65;1.80;;;;;;;32.61;27.18;100666.57;2137678;83;31443;-61
2022/07/28 07:56:33;;;;;;;4.72;2.58;;;;;;;32.53;27.30;100666.25;2137753;83;33356;-61
2022/07/28 07:59:34;;;;;;;5.45;2.05;;;;;;;32.54;27.26;100668.48;2137829;83;29460;-61
2022/07/28 08:02:40;;;;;;;6.45;2.37;;;;;;;32.61;26.91;100669.34;2137678;83;27659;-61
2022/07/28 08:05:42;;;;;;;4.28;2.17;;;;;;;32.59;26.92;100663.16;2136896;82;28828;-61
2022/07/28 08:08:43;;;;;;;6.60;2.27;;;;;;;32.67;26.93;100666.24;2137810;83;32199;-61
2022/07/28 08:11:44;;;;;;;5.33;2.20;;;;;;;32.74;26.69;100662.95;2137872;83;33362;-61
2022/07/28 08:14:46;;;;;;;4.30;2.10;;;;;;;32.71;26.38;100660.59;2137774;83;29998;-61
2022/07/28 08:17:47;;;;;;;6.03;2.17;;;;;;;32.52;26.09;100659.52;2137512;83;27613;-61
2022/07/28 08:20:49;;;;;;;6.08;2.30;;;;;;;32.17;25.48;100659.14;2137693;83;29022;-61
2022/07/28 08:23:51;;;;;;;3.40;1.82;;;;;;;31.96;25.97;100662.39;2137729;83;31311;-61
2022/07/28 08:26:53;;;;;;;4.33;1.85;;;;;;;31.71;25.70;100657.95;2137342;83;47520;-61
2022/07/28 08:29:55;;;;;;;4.92;2.12;;;;;;;31.32;24.96;100667.23;2137732;83;29637;-61
2022/07/28 08:32:56;;;;;;;5.20;2.42;;;;;;;31.02;25.44;100662.46;2137354;83;27516;-61
2022/07/28 08:35:58;;;;;;;11.75;2.20;;;;;;;30.88;26.01;100660.13;2137971;83;29264;-61
2022/07/28 08:39:00;;;;;;;6.50;2.05;;;;;;;30.81;25.86;100655.92;2137479;83;31080;-61
2022/07/28 08:42:17;;;;;;;4.30;2.20;;;;;;;30.85;26.11;100651.71;2137761;83;33363;-61
2022/07/28 08:45:20;;;;;;;7.83;2.42;;;;;;;30.96;26.08;100654.96;2137843;83;29578;-61
2022/07/28 08:48:22;;;;;;;7.67;1.95;;;;;;;30.94;26.10;100652.92;2137996;83;27575;-61
2022/07/28 08:51:25;;;;;;;3.77;1.70;;;;;;;30.88;26.27;100648.52;2137842;83;28421;-61
2022/07/28 08:54:27;;;;;;;3.50;1.60;;;;;;;30.76;26.04;100643.22;2138051;83;31020;-61
2022/07/28 08:57:34;;;;;;;3.30;1.50;;;;;;;30.68;25.81;100648.92;2137817;83;34097;-61
2022/07/28 09:00:36;;;;;;;6.45;1.95;;;;;;;30.56;25.85;100643.08;2137637;83;30863;-61
2022/07/28 09:03:38;;;;;;;2.25;1.30;;;;;;;30.18;24.97;100649.73;2137932;83;27731;-61
2022/07/28 09:06:41;;;;;;;4.30;1.52;;;;;;;29.78;26.08;100638.20;2137854;83;29843;-61
2022/07/28 09:09:43;;;;;;;7.50;1.85;;;;;;;29.73;25.79;100640.17;2137916;83;31847;-61
2022/07/28 09:12:45;;;;;;;4.47;1.62;;;;;;;29.41;25.83;100638.20;2137616;83;34267;-61
2022/07/28 09:15:47;;;;;;;5.83;1.57;;;;;;;29.14;26.24;100635.02;2137466;83;31004;-61
2022/07/28 09:18:48;;;;;;;7.70;1.87;;;;;;;29.04;26.62;100633.92;2137628;83;28190;-61
2022/07/28 09:21:51;;;;;;;6.05;1.57;;;;;;;29.06;26.86;100634.59;2137767;83;28484;-61
2022/07/28 09:24:52;;;;;;;6.40;1.90;;;;;;;28.74;26.08;100642.72;2137716;83;31384;-62
2022/07/28 09:27:55;;;;;;;5.40;1.42;;;;;;;28.26;26.70;100641.05;2137701;83;34159;-61
2022/07/28 09:30:57;;;;;;;4.83;1.30;;;;;;;28.05;27.23;100626.02;2137432;83;30968;-62
2022/07/28 09:34:02;;;;;;;5.33;1.70;;;;;;;28.10;27.62;100628.78;2117423;83;27688;-60
2022/07/28 09:37:03;;;;;;;7.20;1.70;;;;;;;28.07;27.63;100632.70;2137328;82;29497;-61
2022/07/28 09:40:13;;;;;;;3.65;1.32;;;;;;;27.94;27.58;100637.47;2137554;83;31230;-60
2022/07/28 09:43:14;;;;;;;4.92;2.00;;;;;;;27.66;27.63;100635.74;2137807;83;32949;-61
2022/07/28 09:46:18;;;;;;;4.22;1.80;;;;;;;27.35;27.79;100638.77;2137586;83;29727;-61
2022/07/28 09:49:19;;;;;;;2.90;1.40;;;;;;;27.37;28.44;100634.48;2137825;83;27754;-61
2022/07/28 09:52:35;;;;;;;4.65;1.57;;;;;;;27.57;28.45;100630.27;2137877;83;29056;-61
2022/07/28 09:55:42;;;;;;;4.53;1.65;;;;;;;27.52;28.89;100631.34;2137322;83;31056;-61
2022/07/28 09:58:58;;;;;;;2.70;1.15;;;;;;;27.46;28.16;100626.55;2133125;82;33345;-61
2022/07/28 10:02:01;;;;;;;4.10;1.55;;;;;;;27.44;28.51;100628.59;2137788;83;30806;-62
2022/07/28 10:05:05;;;;;;;4.23;1.60;;;;;;;27.48;28.67;100622.23;2137885;83;27697;-61
2022/07/28 10:08:06;;;;;;;5.70;1.57;;;;;;;27.56;28.81;100613.94;2137956;83;28660;-61
2022/07/28 10:11:09;;;;;;;4.85;1.98;;;;;;;27.66;28.81;100620.06;2137574;83;31696;-61
2022/07/28 10:14:12;;;;;;;2.62;1.45;;;;;;;27.68;28.62;100607.52;2137611;83;32975;-61
2022/07/28 10:17:30;;;;;;;5.58;1.70;;;;;;;27.69;28.77;100610.61;2138038;83;30179;-60
2022/07/28 10:20:33;;;;;;;4.08;1.50;;;;;;;27.57;28.72;100611.53;2135850;83;27625;-60
2022/07/28 10:23:38;;;;;;;7.22;1.77;;;;;;;27.38;28.54;100610.91;2137431;83;29913;-60
2022/07/28 10:26:44;;;;;;;3.30;1.52;;;;;;;27.25;28.85;100606.50;2137695;83;31399;-60
2022/07/28 10:29:46;;;;;;;5.20;1.60;;;;;;;27.13;28.41;100611.02;2137844;83;34110;-60
2022/07/28 10:32:48;;;;;;;3.47;1.60;;;;;;;26.85;28.31;100610.59;2137962;83;29989;-59
2022/07/28 10:35:49;;;;;;;3.67;1.42;;;;;;;26.68;28.71;100614.72;2138034;83;27619;-60
2022/07/28 10:38:56;;;;;;;2.83;1.22;;;;;;;26.60;28.75;100609.22;2141052;82;29127;-60
2022/07/28 10:41:57;;;;;;;3.55;1.50;;;;;;;26.49;28.96;100602.19;2137516;83;31880;-60
2022/07/28 10:44:58;;;;;;;6.00;3.33;;;;;;;26.62;29.42;100600.81;2137877;83;32402;-60
2022/07/28 10:48:01;;;;;;;2.50;1.42;;;;;;;26.77;29.40;100595.44;2137581;83;30429;-60
2022/07/28 10:51:02;;;;;;;3.50;1.57;;;;;;;26.86;29.66;100596.31;2137633;83;27673;-60
2022/07/28 10:54:18;;;;;;;4.62;1.80;;;;;;;26.97;29.84;100596.80;2137753;83;29088;-61
2022/07/28 10:57:21;;;;;;;4.05;1.42;;;;;;;27.04;28.74;100595.57;2136569;83;32262;-61
2022/07/28 11:00:24;;;;;;;1.37;1.25;;;;;;;26.76;28.93;100593.72;2137649;83;33313;-62
2022/07/28 11:03:43;;;;;;;8.20;1.62;;;;;;;26.79;29.32;100591.54;2137843;83;30002;-61
2022/07/28 11:06:46;;;;;;;2.72;1.45;;;;;;;26.78;28.69;100591.16;2137665;83;27690;-61
2022/07/28 11:09:48;;;;;;;2.77;1.47;;;;;;;26.67;28.27;100597.01;2137701;83;29016;-61
2022/07/28 11:12:56;;;;;;;6.42;1.72;;;;;;;26.46;28.75;100595.69;2137367;83;31449;-60
2022/07/28 11:16:20;;;;;;;3.10;1.50;;;;;;;26.35;28.51;100596.90;2122403;83;33491;-61
2022/07/28 11:19:21;;;;;;;3.08;1.65;;;;;;;26.32;28.89;100597.73;2138228;83;30027;-62
2022/07/28 11:22:27;;;;;;;4.47;1.87;;;;;;;26.32;28.91;100598.61;2137948;83;27581;-62
2022/07/28 11:25:31;;;;;;;2.77;1.50;;;;;;;26.25;28.63;100594.82;2117208;83;27752;-61
2022/07/28 11:28:32;;;;;;;4.45;1.90;;;;;;;26.00;28.53;100592.05;2137782;83;32190;-63
2022/07/28 11:31:51;;;;;;;2.67;1.30;;;;;;;25.85;28.76;100588.27;2117033;83;34083;-61
2022/07/28 11:35:05;;;;;;;1.77;1.05;;;;;;;25.77;29.09;100585.00;2137947;83;30827;-62
2022/07/28 11:38:12;;;;;;;6.97;1.60;;;;;;;25.67;29.07;100585.14;2130068;82;27613;-61
2022/07/28 11:41:29;;;;;;;5.17;1.40;;;;;;;25.65;29.54;100587.20;2127494;83;28673;-61
2022/07/28 11:44:32;;;;;;;2.55;1.75;;;;;;;25.75;29.72;100578.81;2124012;83;32488;-61
2022/07/28 11:47:33;;;;;;;9.30;1.55;;;;;;;25.85;29.69;100567.68;2127471;83;33823;-61
2022/07/28 11:50:35;;;;;;;5.67;1.52;;;;;;;25.84;29.73;100568.70;2127417;83;30121;-61
2022/07/28 11:53:45;;;;;;;3.20;1.35;;;;;;;25.78;29.50;100568.34;2127580;83;27686;-61
2022/07/28 11:56:52;;;;;;;5.17;1.80;;;;;;;25.74;29.79;100572.45;2127521;83;29081;-61
2022/07/28 11:59:55;;;;;;;3.60;1.25;;;;;;;25.67;30.12;100570.05;2126464;83;31380;-61
2022/07/28 12:02:59;;;;;;;4.47;1.53;;;;;;;25.63;29.85;100570.91;2127694;83;34308;-61
2022/07/28 12:06:00;;;;;;;4.28;1.60;;;;;;;25.54;29.84;100568.31;2127167;83;30802;-61
2022/07/28 12:09:06;;;;;;;2.17;1.30;;;;;;;25.45;29.88;100572.92;2127266;83;27615;-62
2022/07/28 12:12:08;;;;;;;3.10;1.50;;;;;;;25.37;29.86;100554.53;2126738;83;29913;-62
2022/07/28 12:15:14;;;;;;;4.80;1.95;;;;;;;25.32;30.07;100555.53;2126831;83;32489;-62
2022/07/28 12:18:16;;;;;;;6.17;1.60;;;;;;;25.26;29.89;100551.58;2126965;83;33952;-61
2022/07/28 12:21:36;;;;;;;5.78;1.30;;;;;;;25.12;29.61;100546.20;2127376;83;30201;-61
2022/07/28 12:24:38;;;;;;;3.40;1.42;;;;;;;25.00;30.09;100542.05;2127446;83;27554;-61
2022/07/28 12:27:39;;;;;;;3.05;1.75;;;;;;;24.99;30.14;100547.19;2127375;83;29051;-61
2022/07/28 12:30:40;;;;;;;4.03;1.50;;;;;;;24.93;30.08;100542.35;2127399;83;32207;-61
2022/07/28 12:33:42;;;;;;;4.33;1.57;;;;;;;24.85;30.36;100533.58;2127431;83;34114;-62
2022/07/28 12:36:43;;;;;;;6.90;1.60;;;;;;;24.83;30.38;100534.25;2127581;83;30776;-62
2022/07/28 12:39:51;;;;;;;3.15;1.27;;;;;;;24.78;30.39;100536.65;2130799;82;27829;-62
2022/07/28 12:42:52;;;;;;;2.55;1.12;;;;;;;24.75;30.32;100531.48;2131250;83;29074;-62
2022/07/28 12:45:54;;;;;;;4.05;1.32;;;;;;;24.63;30.23;100539.09;2130546;83;32226;-62
2022/07/28 12:48:58;;;;;;;6.60;1.42;;;;;;;24.53;30.54;100535.09;2130888;83;33411;-62
2022/07/28 12:52:19;;;;;;;3.07;1.40;;;;;;;24.47;30.66;100528.92;2131256;83;30249;-62
2022/07/28 12:55:29;;;;;;;3.10;1.50;;;;;;;24.49;30.92;100533.20;2131284;83;27693;-62
2022/07/28 12:58:30;;;;;;;3.55;1.52;;;;;;;24.53;30.95;100533.23;2130997;83;29796;-62
2022/07/28 13:01:58;;;;;;;4.75;1.37;;;;;;;24.56;31.02;100527.44;2130954;83;31397;-63
2022/07/28 13:05:06;;;;;;;4.12;1.65;;;;;;;24.57;30.91;100524.17;2130507;83;33024;-63
2022/07/28 13:08:08;;;;;;;5.80;1.50;;;;;;;24.56;30.99;100521.96;2130994;83;29640;-62
2022/07/28 13:11:11;;;;;;;2.72;1.22;;;;;;;24.60;30.92;100521.11;2130880;83;27697;-63
2022/07/28 13:14:13;;;;;;;6.67;1.60;;;;;;;24.60;30.96;100521.11;2130863;83;28704;-63
2022/07/28 13:17:16;;;;;;;5.47;1.77;;;;;;;24.58;30.92;100517.67;2130504;83;31733;-63
2022/07/28 13:20:19;;;;;;;2.92;1.20;;;;;;;24.56;30.70;100508.76;2130902;83;33797;-62
2022/07/28 13:23:21;;;;;;;4.30;1.27;;;;;;;24.55;30.50;100507.03;2130830;83;30814;-61
2022/07/28 13:26:23;;;;;;;2.52;1.30;;;;;;;24.53;30.54;100504.97;2131011;83;27701;-61
2022/07/28 13:29:24;;;;;;;4.62;1.50;;;;;;;24.53;30.86;100513.19;2130979;83;29029;-61
2022/07/28 13:32:26;;;;;;;3.10;1.45;;;;;;;24.54;30.63;100514.41;2131132;83;31382;-61
2022/07/28 13:35:27;;;;;;;5.42;1.45;;;;;;;24.51;30.58;100506.52;2130995;83;32729;-61
2022/07/28 13:38:29;;;;;;;8.70;1.55;;;;;;;24.50;30.54;100510.27;2129557;82;30750;-63
2022/07/28 13:41:30;;;;;;;5.97;1.40;;;;;;;24.50;30.63;100502.05;2127518;83;27789;-61
2022/07/28 13:44:34;;;;;;;4.00;1.40;;;;;;;24.50;30.73;100493.84;2127714;83;29847;-61
2022/07/28 13:47:35;;;;;;;8.97;1.30;;;;;;;24.53;30.36;100500.37;2127468;83;31895;-61
2022/07/28 13:50:36;;;;;;;5.97;1.20;;;;;;;24.52;30.47;100504.13;2127655;83;33112;-61
2022/07/28 13:53:42;;;;;;;3.80;1.27;;;;;;;24.52;30.77;100497.77;2127253;83;30863;-62
2022/07/28 13:56:53;;;;;;;3.67;1.45;;;;;;;24.53;30.58;100500.37;2127786;83;27705;-64
2022/07/28 14:00:05;;;;;;;8.15;1.98;;;;;;;24.54;30.47;100497.98;2127683;83;29476;-62
2022/07/28 14:03:06;;;;;;;9.73;1.50;;;;;;;24.55;30.45;100491.48;2127219;83;31125;-62
2022/07/28 14:06:09;;;;;;;4.92;1.60;;;;;;;24.54;30.42;100495.73;2127286;83;33662;-62
2022/07/28 14:09:11;;;;;;;2.42;1.52;;;;;;;24.53;30.70;100489.41;2127652;83;29628;-62
2022/07/28 14:12:13;;;;;;;6.67;1.30;;;;;;;24.50;30.72;100491.09;2127551;83;28213;-63
2022/07/28 14:15:14;;;;;;;3.40;1.70;;;;;;;24.51;30.70;100480.49;2127209;83;28680;-62
2022/07/28 14:18:15;;;;;;;3.02;1.90;;;;;;;24.55;30.89;100481.89;2127665;83;31657;-63